Terminal Aerodrome Forecast
Issued by NWS Pittsburgh, PA

Current Version | Previous Version | Text Only | Print | Product List | Glossary Off
Versions: 1 2 3 4 5 6 7 8 9 10 11 12 13 14 15 16 17 18 19 20 21 22 23 24 25 26 27 28 29 30 31 32 33 34 35 36 37 38 39

000
FTUS41 KPBZ 221747
TAFPIT
TAF
KPIT 221747Z 2218/2324 07012G19KT P6SM VCSH OVC009
     FM222200 06010KT P6SM OVC015
     FM231000 10005KT 5SM -RA BR OVC008
     FM231700 18007KT 3SM -RA BR OVC008=

USA.gov is the U.S. government's official web portal to all federal, state and local government web resources and services.